createdAt,value
2022-10-23T00:01:17.331Z,6.53
2022-10-23T00:03:44.507Z,6.35
2022-10-23T00:06:12.730Z,5.97
2022-10-23T00:08:39.321Z,5.38
2022-10-23T00:11:14.292Z,5.70
2022-10-23T00:13:41.361Z,6.70
2022-10-23T00:16:09.299Z,5.45
2022-10-23T00:18:36.765Z,5.72
2022-10-23T00:21:04.131Z,6.30
2022-10-23T00:23:30.565Z,6.47
2022-10-23T00:25:56.891Z,6.50
2022-10-23T00:28:23.357Z,6.68
2022-10-23T00:30:49.697Z,7.03
2022-10-23T00:33:16.363Z,6.60
2022-10-23T00:35:43.267Z,6.05
2022-10-23T00:38:10.611Z,6.30
2022-10-23T00:40:38.341Z,6.65
2022-10-23T00:43:05.063Z,6.70
2022-10-23T00:45:33.399Z,6.07
2022-10-23T00:48:01.774Z,5.95
2022-10-23T00:50:30.945Z,5.47
2022-10-23T00:53:01.832Z,5.63
2022-10-23T00:55:30.136Z,5.72
2022-10-23T00:57:56.618Z,5.63
2022-10-23T01:00:22.887Z,6.30
2022-10-23T01:02:49.767Z,5.47
2022-10-23T01:05:16.380Z,5.63
2022-10-23T01:07:45.765Z,5.88
2022-10-23T01:10:18.593Z,6.07
2022-10-23T01:13:03.760Z,5.80
2022-10-23T01:15:40.792Z,5.40
2022-10-23T01:18:25.255Z,5.90
2022-10-23T01:21:18.321Z,6.32
2022-10-23T01:24:26.833Z,5.95
2022-10-23T01:27:14.294Z,5.90
2022-10-23T01:29:49.430Z,6.10
2022-10-23T01:32:35.486Z,7.18
2022-10-23T01:35:19.182Z,6.97
2022-10-23T01:37:51.119Z,6.97
2022-10-23T01:40:30.062Z,6.53
2022-10-23T01:43:02.157Z,5.80
2022-10-23T01:45:40.935Z,5.57
2022-10-23T01:48:11.953Z,6.70
2022-10-23T01:50:41.031Z,5.57
2022-10-23T01:53:08.025Z,5.80
2022-10-23T01:55:38.980Z,6.80
2022-10-23T01:58:08.358Z,6.55
2022-10-23T02:00:38.527Z,6.70
2022-10-23T02:03:07.262Z,6.35
2022-10-23T02:05:33.978Z,7.28
2022-10-23T02:08:01.148Z,5.67
2022-10-23T02:10:45.722Z,7.20
2022-10-23T02:13:29.716Z,7.57
2022-10-23T02:16:23.509Z,7.53
2022-10-23T02:18:56.030Z,8.05
2022-10-23T02:21:34.042Z,7.50
2022-10-23T02:24:09.316Z,7.28
2022-10-23T02:26:49.100Z,7.60
2022-10-23T02:29:30.921Z,7.30
2022-10-23T02:31:57.324Z,7.80
2022-10-23T02:34:23.748Z,7.40
2022-10-23T02:36:50.744Z,7.50
2022-10-23T02:39:17.075Z,7.32
2022-10-23T02:42:11.912Z,8.10
2022-10-23T02:44:55.328Z,8.55
2022-10-23T02:47:34.710Z,8.03
2022-10-23T02:50:08.067Z,8.48
2022-10-23T02:52:50.300Z,8.75
2022-10-23T02:55:41.753Z,8.73
2022-10-23T02:58:19.102Z,10.15
2022-10-23T03:00:52.235Z,10.23
2022-10-23T03:03:24.867Z,9.43
2022-10-23T03:05:51.266Z,11.70
2022-10-23T03:08:17.639Z,10.93
2022-10-23T03:10:44.290Z,11.43
2022-10-23T03:13:11.697Z,14.10
2022-10-23T03:15:37.988Z,11.68
2022-10-23T03:18:04.446Z,9.35
2022-10-23T03:20:30.861Z,12.07
2022-10-23T03:22:57.175Z,13.30
2022-10-23T03:25:23.464Z,12.83
2022-10-23T03:27:49.735Z,8.52
2022-10-23T03:30:17.291Z,11.60
2022-10-23T03:32:43.737Z,7.90
2022-10-23T03:35:10.398Z,8.50
2022-10-23T03:37:36.705Z,7.87
2022-10-23T03:40:04.507Z,9.30
2022-10-23T03:42:30.782Z,8.38
2022-10-23T03:44:57.066Z,10.10
2022-10-23T03:47:23.454Z,9.73
2022-10-23T03:49:49.726Z,9.73
2022-10-23T03:52:16.067Z,11.13
2022-10-23T03:54:42.426Z,10.98
2022-10-23T03:57:08.722Z,8.65
2022-10-23T03:59:35.155Z,10.00
2022-10-23T04:02:01.593Z,10.80
2022-10-23T04:04:28.004Z,10.20
2022-10-23T04:06:54.431Z,12.25
2022-10-23T04:09:20.751Z,10.15
2022-10-23T04:11:47.093Z,8.50
2022-10-23T04:14:14.175Z,10.17
2022-10-23T04:16:40.692Z,10.52
2022-10-23T04:19:07.251Z,11.60
2022-10-23T04:21:34.071Z,9.77
2022-10-23T04:24:00.412Z,8.02
2022-10-23T04:26:26.682Z,7.97
2022-10-23T04:28:53.003Z,9.05
2022-10-23T04:31:19.311Z,8.32
2022-10-23T04:33:45.643Z,9.57
2022-10-23T04:36:11.978Z,11.80
2022-10-23T04:38:38.296Z,11.10
2022-10-23T04:41:04.662Z,9.38
2022-10-23T04:43:30.970Z,8.95
2022-10-23T04:45:57.254Z,8.85
2022-10-23T04:48:25.652Z,10.27
2022-10-23T04:50:59.907Z,8.60
2022-10-23T04:53:27.535Z,7.38
2022-10-23T04:55:56.186Z,7.88
2022-10-23T04:58:23.526Z,8.00
2022-10-23T05:00:50.289Z,7.55
2022-10-23T05:03:18.116Z,7.17
2022-10-23T05:05:45.794Z,6.85
2022-10-23T05:08:15.560Z,6.55
2022-10-23T05:10:44.313Z,7.72
2022-10-23T05:13:10.591Z,8.13
2022-10-23T05:15:36.935Z,7.57
2022-10-23T05:18:11.947Z,8.30
2022-10-23T05:20:39.618Z,9.00
2022-10-23T05:23:09.847Z,8.40
2022-10-23T05:25:36.802Z,10.15
2022-10-23T05:28:03.497Z,9.57
2022-10-23T05:30:30.114Z,10.27
2022-10-23T05:32:56.424Z,11.00
2022-10-23T05:35:23.380Z,11.05
2022-10-23T05:37:53.358Z,10.30
2022-10-23T05:40:20.046Z,12.47
2022-10-23T05:42:46.703Z,10.68
2022-10-23T05:45:13.173Z,12.10
2022-10-23T05:47:39.489Z,9.02
2022-10-23T05:50:06.052Z,11.63
2022-10-23T05:52:32.356Z,12.90
2022-10-23T05:54:58.622Z,12.57
2022-10-23T05:57:24.939Z,12.77
2022-10-23T05:59:51.263Z,9.93
2022-10-23T06:02:17.623Z,10.57
2022-10-23T06:04:43.998Z,11.70
2022-10-23T06:07:10.286Z,9.82
2022-10-23T06:09:36.570Z,12.15
2022-10-23T06:12:02.951Z,9.25
2022-10-23T06:14:29.276Z,11.95
2022-10-23T06:16:55.624Z,10.90
2022-10-23T06:19:21.989Z,9.45
2022-10-23T06:21:48.379Z,10.48
2022-10-23T06:24:14.820Z,10.05
2022-10-23T06:26:41.081Z,10.93
2022-10-23T06:29:07.494Z,10.30
2022-10-23T06:31:33.792Z,10.23
2022-10-23T06:34:00.306Z,10.80
2022-10-23T06:36:27.420Z,11.40
2022-10-23T06:38:53.753Z,10.43
2022-10-23T06:41:21.997Z,9.07
2022-10-23T06:43:50.522Z,9.68
2022-10-23T06:46:18.878Z,10.40
2022-10-23T06:48:45.186Z,8.63
2022-10-23T06:51:13.278Z,9.55
2022-10-23T06:53:40.374Z,8.30
2022-10-23T06:56:07.806Z,7.90
2022-10-23T06:58:35.575Z,7.28
2022-10-23T07:01:03.885Z,7.60
2022-10-23T07:03:30.348Z,8.27
2022-10-23T07:06:00.760Z,6.80
2022-10-23T07:08:27.075Z,7.82
2022-10-23T07:10:53.531Z,8.10
2022-10-23T07:13:19.873Z,7.60
2022-10-23T07:15:46.258Z,7.43
2022-10-23T07:18:14.608Z,7.63
2022-10-23T07:20:41.761Z,7.25
2022-10-23T07:23:11.059Z,7.47
2022-10-23T07:25:37.746Z,7.93
2022-10-23T07:28:05.028Z,9.98
2022-10-23T07:30:31.546Z,7.33
2022-10-23T07:32:57.853Z,7.47
2022-10-23T07:35:24.326Z,6.72
2022-10-23T07:37:50.700Z,6.85
2022-10-23T07:40:18.661Z,6.82
2022-10-23T07:42:45.077Z,6.43
2022-10-23T07:45:12.400Z,6.40
2022-10-23T07:47:38.730Z,7.15
2022-10-23T07:50:05.455Z,6.32
2022-10-23T07:52:35.043Z,6.25
2022-10-23T07:55:02.381Z,5.73
2022-10-23T07:57:28.643Z,5.90
2022-10-23T07:59:54.954Z,5.63
2022-10-23T08:02:21.296Z,4.90
2022-10-23T08:04:50.894Z,5.40
2022-10-23T08:07:17.423Z,4.30
2022-10-23T08:09:43.722Z,5.38
2022-10-23T08:12:10.333Z,4.50
2022-10-23T08:14:36.666Z,5.15
2022-10-23T08:17:04.676Z,4.93
2022-10-23T08:19:31.075Z,4.50
2022-10-23T08:21:57.563Z,5.07
2022-10-23T08:24:23.867Z,4.50
2022-10-23T08:26:50.306Z,4.18
2022-10-23T08:29:16.848Z,4.68
2022-10-23T08:31:43.197Z,4.17
2022-10-23T08:34:09.560Z,4.03
2022-10-23T08:36:36.428Z,3.90
2022-10-23T08:39:02.749Z,3.70
2022-10-23T08:41:35.938Z,4.35
2022-10-23T08:44:14.497Z,4.17
2022-10-23T08:46:44.535Z,3.88
2022-10-23T08:49:13.814Z,4.22
2022-10-23T08:51:47.354Z,3.97
2022-10-23T08:54:24.240Z,3.85
2022-10-23T08:57:16.013Z,3.50
2022-10-23T08:59:55.847Z,3.55
2022-10-23T09:02:27.936Z,3.80
2022-10-23T09:04:57.144Z,3.90
2022-10-23T09:07:42.849Z,3.38
2022-10-23T09:10:23.200Z,3.07
2022-10-23T09:12:49.779Z,3.55
2022-10-23T09:15:29.951Z,3.33
2022-10-23T09:17:59.940Z,3.40
2022-10-23T09:20:35.333Z,2.97
2022-10-23T09:23:16.207Z,3.10
2022-10-23T09:25:43.280Z,3.58
2022-10-23T09:28:20.620Z,4.60
2022-10-23T09:30:48.282Z,4.95
2022-10-23T09:33:22.033Z,4.25
2022-10-23T09:35:53.163Z,5.10
2022-10-23T09:38:31.869Z,4.82
2022-10-23T09:41:20.175Z,4.70
2022-10-23T09:43:46.576Z,4.80
2022-10-23T09:46:13.175Z,5.70
2022-10-23T09:48:42.116Z,6.03
2022-10-23T09:51:20.686Z,5.05
2022-10-23T09:53:54.243Z,5.38
2022-10-23T09:56:31.338Z,4.97
2022-10-23T09:58:59.097Z,6.28
2022-10-23T10:01:29.386Z,6.00
2022-10-23T10:03:56.826Z,5.47
2022-10-23T10:06:32.136Z,4.68
2022-10-23T10:09:16.055Z,4.50
2022-10-23T10:11:49.892Z,4.60
2022-10-23T10:14:31.615Z,4.07
2022-10-23T10:17:04.439Z,4.32
2022-10-23T10:20:05.446Z,4.45
2022-10-23T10:22:38.908Z,4.00
2022-10-23T10:25:29.019Z,3.90
2022-10-23T10:28:17.271Z,4.00
2022-10-23T10:31:17.791Z,4.00
2022-10-23T10:34:02.962Z,3.83
2022-10-23T10:36:41.925Z,3.63
2022-10-23T10:39:38.215Z,3.03
2022-10-23T10:42:31.073Z,3.40
2022-10-23T10:45:24.043Z,3.15
2022-10-23T10:48:15.557Z,2.65
2022-10-23T10:50:52.080Z,2.80
2022-10-23T10:53:27.156Z,3.70
2022-10-23T10:56:00.155Z,2.20
2022-10-23T10:58:41.850Z,2.17
2022-10-23T11:01:26.639Z,2.28
2022-10-23T11:04:11.928Z,2.53
2022-10-23T11:06:41.527Z,2.58
2022-10-23T11:09:21.731Z,2.40
2022-10-23T11:11:48.773Z,1.98
2022-10-23T11:14:17.010Z,2.20
2022-10-23T11:16:47.922Z,2.40
2022-10-23T11:19:29.210Z,2.40
2022-10-23T11:22:03.134Z,1.50
2022-10-23T11:24:35.480Z,1.65
2022-10-23T11:27:10.922Z,2.33
2022-10-23T11:29:50.692Z,1.65
2022-10-23T11:32:26.088Z,2.15
2022-10-23T11:35:08.504Z,2.00
2022-10-23T11:37:34.969Z,1.73
2022-10-23T11:40:07.079Z,2.28
2022-10-23T11:42:46.992Z,1.83
2022-10-23T11:45:34.815Z,2.17
2022-10-23T11:48:03.971Z,2.10
2022-10-23T11:50:33.679Z,1.75
2022-10-23T11:53:14.564Z,2.15
2022-10-23T11:55:57.249Z,2.33
2022-10-23T11:58:31.466Z,2.35
2022-10-23T12:01:18.073Z,2.13
2022-10-23T12:04:16.506Z,1.98
2022-10-23T12:06:46.991Z,2.78
2022-10-23T12:09:37.295Z,2.15
2022-10-23T12:12:09.827Z,2.83
2022-10-23T12:14:38.509Z,2.47
2022-10-23T12:17:23.119Z,2.80
2022-10-23T12:19:54.935Z,2.42
2022-10-23T12:22:27.986Z,2.58
2022-10-23T12:25:07.138Z,3.17
2022-10-23T12:27:48.723Z,2.30
2022-10-23T12:30:39.856Z,4.13
2022-10-23T12:33:14.266Z,2.90
2022-10-23T12:36:22.461Z,2.90
2022-10-23T12:38:54.631Z,3.35
2022-10-23T12:41:29.479Z,3.17
2022-10-23T12:44:02.389Z,3.10
2022-10-23T12:46:36.236Z,3.88
2022-10-23T12:49:12.471Z,2.72
2022-10-23T12:51:38.746Z,4.00
2022-10-23T12:54:15.753Z,4.00
2022-10-23T12:56:44.072Z,3.97
2022-10-23T12:59:20.438Z,3.75
2022-10-23T13:01:50.462Z,4.00
2022-10-23T13:04:31.029Z,4.55
2022-10-23T13:07:00.663Z,2.93
2022-10-23T13:09:32.789Z,3.10
2022-10-23T13:12:02.614Z,2.80
2022-10-23T13:14:40.646Z,4.80
2022-10-23T13:17:11.527Z,2.97
2022-10-23T13:19:37.984Z,4.67
2022-10-23T13:22:17.826Z,3.25
2022-10-23T13:24:44.296Z,4.30
2022-10-23T13:27:33.376Z,4.28
2022-10-23T13:30:00.208Z,3.92
2022-10-23T13:32:29.794Z,5.10
2022-10-23T13:35:10.194Z,2.83
2022-10-23T13:40:26.134Z,4.22
2022-10-23T13:42:57.056Z,3.20
2022-10-23T13:45:25.622Z,3.10
2022-10-23T13:47:52.404Z,3.70
2022-10-23T13:50:19.875Z,3.65
2022-10-23T13:52:46.391Z,2.78
2022-10-23T13:55:21.997Z,3.28
2022-10-23T13:57:48.343Z,3.07
2022-10-23T14:00:15.182Z,2.25
2022-10-23T14:02:41.916Z,3.17
2022-10-23T14:05:09.061Z,2.53
2022-10-23T14:07:35.362Z,3.50
2022-10-23T14:10:01.708Z,3.30
2022-10-23T14:12:27.998Z,3.40
2022-10-23T14:14:54.324Z,3.60
2022-10-23T14:17:21.134Z,3.10
2022-10-23T14:19:47.546Z,2.80
2022-10-23T14:22:13.912Z,3.50
2022-10-23T14:24:40.264Z,3.15
2022-10-23T14:27:06.557Z,2.88
2022-10-23T14:29:32.874Z,3.30
2022-10-23T14:31:59.179Z,3.33
2022-10-23T14:34:25.662Z,3.07
2022-10-23T14:37:07.496Z,4.55
2022-10-23T14:39:35.097Z,3.17
2022-10-23T14:42:01.441Z,2.80
2022-10-23T14:44:27.895Z,3.00
2022-10-23T14:46:54.244Z,3.07
2022-10-23T14:49:20.625Z,3.22
2022-10-23T14:51:46.934Z,3.70
2022-10-23T14:54:13.339Z,3.10
2022-10-23T14:56:40.694Z,3.13
2022-10-23T14:59:07.898Z,2.80
2022-10-23T15:01:37.806Z,3.50
2022-10-23T15:04:05.063Z,3.42
2022-10-23T15:06:33.107Z,3.05
2022-10-23T15:08:59.639Z,3.53
2022-10-23T15:11:26.822Z,3.37
2022-10-23T15:13:54.590Z,3.92
2022-10-23T15:16:22.776Z,3.28
2022-10-23T15:18:53.866Z,3.85
2022-10-23T15:21:20.272Z,3.72
2022-10-23T15:23:46.918Z,3.07
2022-10-23T15:26:23.541Z,2.97
2022-10-23T15:28:58.347Z,3.60
2022-10-23T15:31:42.982Z,3.45
2022-10-23T15:34:11.623Z,4.90
2022-10-23T15:36:37.951Z,3.93
2022-10-23T15:39:09.423Z,3.40
2022-10-23T15:41:37.562Z,3.90
2022-10-23T15:44:06.113Z,4.30
2022-10-23T15:46:32.746Z,5.07
2022-10-23T15:48:59.095Z,4.53
2022-10-23T15:51:26.051Z,4.22
2022-10-23T15:53:52.462Z,5.13
2022-10-23T15:56:18.772Z,4.80
2022-10-23T15:58:45.327Z,4.70
2022-10-23T16:01:11.783Z,4.87
2022-10-23T16:03:39.019Z,4.65
2022-10-23T16:06:08.135Z,5.10
2022-10-23T16:08:34.678Z,5.18
2022-10-23T16:11:01.529Z,6.32
2022-10-23T16:13:28.449Z,6.17
2022-10-23T16:15:54.829Z,6.30
2022-10-23T16:18:22.675Z,6.68
2022-10-23T16:20:50.837Z,6.97
2022-10-23T16:23:17.516Z,8.25
2022-10-23T16:25:43.960Z,19.40
2022-10-23T16:28:10.276Z,9.07
2022-10-23T16:30:41.483Z,7.35
2022-10-23T16:33:08.478Z,7.25
2022-10-23T16:35:35.716Z,7.35
2022-10-23T16:38:02.067Z,9.10
2022-10-23T16:40:28.518Z,7.53
2022-10-23T16:42:54.837Z,7.30
2022-10-23T16:45:21.298Z,7.30
2022-10-23T16:47:47.579Z,8.38
2022-10-23T16:50:15.284Z,7.87
2022-10-23T16:52:42.348Z,7.80
2022-10-23T16:55:09.376Z,8.15
2022-10-23T16:57:36.709Z,7.25
2022-10-23T17:00:05.295Z,7.03
2022-10-23T17:02:31.945Z,8.77
2022-10-23T17:04:58.520Z,8.23
2022-10-23T17:07:25.101Z,9.85
2022-10-23T17:09:51.409Z,9.85
2022-10-23T17:12:17.766Z,9.57
2022-10-23T17:14:44.108Z,7.73
2022-10-23T17:17:10.816Z,7.90
2022-10-23T17:19:45.139Z,7.57
2022-10-23T17:22:12.552Z,7.75
2022-10-23T17:24:40.143Z,7.65
2022-10-23T17:27:06.884Z,7.70
2022-10-23T17:29:33.462Z,7.85
2022-10-23T17:32:00.022Z,7.70
2022-10-23T17:34:26.387Z,8.43
2022-10-23T17:36:55.175Z,9.32
2022-10-23T17:39:27.192Z,8.30
2022-10-23T17:41:54.795Z,7.93
2022-10-23T17:44:21.400Z,9.15
2022-10-23T17:46:53.406Z,10.40
2022-10-23T17:49:20.618Z,8.85
2022-10-23T17:51:54.466Z,9.50
2022-10-23T17:54:20.920Z,8.55
2022-10-23T17:56:47.204Z,9.10
2022-10-23T17:59:15.523Z,9.50
2022-10-23T18:01:46.788Z,11.90
2022-10-23T18:04:14.259Z,10.40
2022-10-23T18:06:44.189Z,11.50
2022-10-23T18:09:11.711Z,11.93
2022-10-23T18:11:45.396Z,12.50
2022-10-23T18:14:15.343Z,11.57
2022-10-23T18:16:41.712Z,10.93
2022-10-23T18:19:08.590Z,11.13
2022-10-23T18:21:35.806Z,10.63
2022-10-23T18:24:02.271Z,9.25
2022-10-23T18:26:30.687Z,9.30
2022-10-23T18:28:59.058Z,8.97
2022-10-23T18:31:29.535Z,9.60
2022-10-23T18:34:04.195Z,8.63
2022-10-23T18:36:33.283Z,8.32
2022-10-23T18:38:59.900Z,9.05
2022-10-23T18:41:27.161Z,9.13
2022-10-23T18:43:54.326Z,10.07
2022-10-23T18:46:21.448Z,10.77
2022-10-23T18:48:50.476Z,10.40
2022-10-23T18:51:31.122Z,9.68
2022-10-23T18:54:00.799Z,9.97
2022-10-23T18:56:27.840Z,9.02
2022-10-23T18:58:56.261Z,9.65
2022-10-23T19:01:23.218Z,12.02
2022-10-23T19:03:49.838Z,10.45
2022-10-23T19:06:17.070Z,10.47
2022-10-23T19:08:45.095Z,13.15
2022-10-23T19:11:13.518Z,14.43
2022-10-23T19:13:40.333Z,12.88
2022-10-23T19:16:10.451Z,12.43
2022-10-23T19:18:40.424Z,9.47
2022-10-23T19:21:07.579Z,10.05
2022-10-23T19:23:36.374Z,9.48
2022-10-23T19:26:09.426Z,9.93
2022-10-23T19:28:42.264Z,9.52
2022-10-23T19:31:09.828Z,10.00
2022-10-23T19:33:38.377Z,10.43
2022-10-23T19:36:08.871Z,11.43
2022-10-23T19:38:40.137Z,10.82
2022-10-23T19:41:06.574Z,11.23
2022-10-23T19:43:33.127Z,10.33
2022-10-23T19:46:06.318Z,11.07
2022-10-23T19:48:35.776Z,11.10
2022-10-23T19:51:02.109Z,11.07
2022-10-23T19:53:28.471Z,11.80
2022-10-23T19:56:02.792Z,10.60
2022-10-23T19:58:29.122Z,11.00
2022-10-23T20:00:55.435Z,10.70
2022-10-23T20:03:21.758Z,11.25
2022-10-23T20:05:48.058Z,11.52
2022-10-23T20:08:14.362Z,11.50
2022-10-23T20:10:44.337Z,14.85
2022-10-23T20:13:20.516Z,12.80
2022-10-23T20:15:47.003Z,12.50
2022-10-23T20:18:13.280Z,12.55
2022-10-23T20:20:41.279Z,14.10
2022-10-23T20:23:07.811Z,13.50
2022-10-23T20:25:34.161Z,13.45
2022-10-23T20:28:00.484Z,12.15
2022-10-23T20:30:26.859Z,11.90
2022-10-23T20:32:53.185Z,10.43
2022-10-23T20:35:19.482Z,11.45
2022-10-23T20:37:46.212Z,11.23
2022-10-23T20:40:12.916Z,10.63
2022-10-23T20:42:39.220Z,10.88
2022-10-23T20:45:06.027Z,10.13
2022-10-23T20:47:32.336Z,9.88
2022-10-23T20:49:58.898Z,10.57
2022-10-23T20:52:26.112Z,10.50
2022-10-23T20:54:52.410Z,11.98
2022-10-23T20:57:21.238Z,17.03
2022-10-23T20:59:47.779Z,17.63
2022-10-23T21:02:14.144Z,14.38
2022-10-23T21:04:40.549Z,14.23
2022-10-23T21:07:11.420Z,10.38
2022-10-23T21:09:39.387Z,9.50
2022-10-23T21:12:06.469Z,8.35
2022-10-23T21:14:33.377Z,8.65
2022-10-23T21:16:59.708Z,8.95
2022-10-23T21:19:26.065Z,8.40
2022-10-23T21:21:52.460Z,8.40
2022-10-23T21:24:18.812Z,8.50
2022-10-23T21:26:45.188Z,8.23
2022-10-23T21:29:18.581Z,8.48
2022-10-23T21:31:51.812Z,8.07
2022-10-23T21:34:18.146Z,8.23
2022-10-23T21:37:10.896Z,8.50
2022-10-23T21:39:33.095Z,8.45
2022-10-23T21:41:59.396Z,8.32
2022-10-23T21:44:25.718Z,8.63
2022-10-23T21:46:52.118Z,8.80
2022-10-23T21:49:18.418Z,8.30
2022-10-23T21:51:44.692Z,8.80
2022-10-23T21:54:14.668Z,9.10
2022-10-23T21:56:46.633Z,8.77
2022-10-23T21:59:17.322Z,8.73
2022-10-23T22:01:45.453Z,9.15
2022-10-23T22:04:14.163Z,8.05
2022-10-23T22:06:41.952Z,8.30
2022-10-23T22:09:09.729Z,9.77
2022-10-23T22:11:36.163Z,8.80
2022-10-23T22:14:03.461Z,8.73
2022-10-23T22:16:29.866Z,9.43
2022-10-23T22:18:56.316Z,9.57
2022-10-23T22:21:25.924Z,9.48
2022-10-23T22:23:55.122Z,8.87
2022-10-23T22:26:23.478Z,8.90
2022-10-23T22:28:51.827Z,8.88
2022-10-23T22:31:21.286Z,9.27
2022-10-23T22:33:47.992Z,9.05
2022-10-23T22:36:14.978Z,9.40
2022-10-23T22:38:41.473Z,9.25
2022-10-23T22:41:08.787Z,9.68
2022-10-23T22:43:35.250Z,8.95
2022-10-23T22:46:03.473Z,9.68
2022-10-23T22:48:29.854Z,9.33
2022-10-23T22:50:56.155Z,9.25
2022-10-23T22:53:22.545Z,9.18
2022-10-23T22:55:48.899Z,9.55
2022-10-23T22:58:15.186Z,9.68
2022-10-23T23:00:43.577Z,9.60
2022-10-23T23:03:10.126Z,10.15
2022-10-23T23:08:14.734Z,8.35
2022-10-23T23:10:41.195Z,7.90
2022-10-23T23:13:07.855Z,6.90
2022-10-23T23:15:39.378Z,6.28
2022-10-23T23:18:05.672Z,4.90
2022-10-23T23:20:31.963Z,4.28
2022-10-23T23:22:58.275Z,3.63
2022-10-23T23:25:24.599Z,3.53
2022-10-23T23:27:50.897Z,3.08
2022-10-23T23:30:17.274Z,2.78
2022-10-23T23:32:43.924Z,3.05
2022-10-23T23:35:10.543Z,2.30
2022-10-23T23:37:36.838Z,2.30
2022-10-23T23:40:04.034Z,1.98
2022-10-23T23:42:30.635Z,2.00
2022-10-23T23:45:02.696Z,1.92
2022-10-23T23:47:40.513Z,2.30
2022-10-23T23:50:08.850Z,1.33
2022-10-23T23:52:35.242Z,1.45
2022-10-23T23:55:01.570Z,1.27
2022-10-23T23:57:27.936Z,1.90
2022-10-23T23:59:54.221Z,1.60
